createdAt,value
2023-04-14T00:00:19.221Z,0.00
2023-04-14T00:05:19.277Z,0.00
2023-04-14T00:10:19.088Z,0.00
2023-04-14T00:15:19.022Z,0.00
2023-04-14T00:20:18.954Z,0.00
2023-04-14T00:25:18.935Z,0.00
2023-04-14T00:30:18.841Z,0.00
2023-04-14T00:35:18.762Z,0.00
2023-04-14T00:40:18.702Z,0.00
2023-04-14T00:45:18.658Z,0.00
2023-04-14T00:50:18.556Z,0.00
2023-04-14T00:55:18.507Z,0.00
2023-04-14T01:00:18.454Z,0.00
2023-04-14T01:05:18.401Z,0.00
2023-04-14T01:10:18.301Z,0.00
2023-04-14T01:15:18.240Z,0.00
2023-04-14T01:20:18.162Z,0.00
2023-04-14T01:25:18.104Z,0.00
2023-04-14T01:30:18.027Z,0.00
2023-04-14T01:35:17.959Z,0.00
2023-04-14T01:40:17.893Z,0.00
2023-04-14T01:45:17.875Z,0.00
2023-04-14T01:50:17.771Z,0.00
2023-04-14T01:55:17.702Z,0.00
2023-04-14T02:00:17.658Z,0.00
2023-04-14T02:05:17.590Z,0.00
2023-04-14T02:10:17.500Z,0.00
2023-04-14T02:15:17.431Z,0.00
2023-04-14T02:20:17.357Z,0.00
2023-04-14T02:25:17.322Z,0.00
2023-04-14T02:30:17.215Z,0.00
2023-04-14T02:35:17.168Z,0.00
2023-04-14T02:40:17.083Z,0.00
2023-04-14T02:45:17.030Z,0.00
2023-04-14T02:50:16.958Z,0.00
2023-04-14T02:55:16.896Z,0.00
2023-04-14T03:00:16.872Z,0.00
2023-04-14T03:05:16.778Z,0.00
2023-04-14T03:10:16.681Z,0.00
2023-04-14T03:15:16.625Z,0.00
2023-04-14T03:20:16.580Z,0.00
2023-04-14T03:25:16.492Z,0.00
2023-04-14T03:30:16.498Z,0.00
2023-04-14T03:35:16.363Z,0.00
2023-04-14T03:40:16.285Z,0.00
2023-04-14T03:45:16.213Z,0.00
2023-04-14T03:50:16.145Z,0.00
2023-04-14T03:55:16.078Z,0.00
2023-04-14T04:00:16.024Z,4.00
2023-04-14T04:05:15.957Z,12.00
2023-04-14T04:10:15.901Z,24.00
2023-04-14T04:15:15.812Z,40.00
2023-04-14T04:20:15.755Z,60.00
2023-04-14T04:25:15.733Z,96.00
2023-04-14T04:30:15.609Z,136.00
2023-04-14T04:35:15.548Z,188.00
2023-04-14T04:40:15.480Z,276.00
2023-04-14T04:45:15.422Z,340.00
2023-04-14T04:50:16.047Z,312.00
2023-04-14T04:55:15.279Z,308.00
2023-04-14T05:00:15.202Z,432.00
2023-04-14T05:05:15.146Z,476.00
2023-04-14T05:10:15.085Z,456.00
2023-04-14T05:15:15.014Z,584.00
2023-04-14T05:20:14.942Z,976.00
2023-04-14T05:25:14.907Z,860.00
2023-04-14T05:30:14.806Z,784.00
2023-04-14T05:35:14.762Z,1052.00
2023-04-14T05:40:14.688Z,888.00
2023-04-14T05:45:14.634Z,1380.00
2023-04-14T05:50:14.553Z,980.00
2023-04-14T05:55:14.484Z,876.00
2023-04-14T06:00:14.414Z,900.00
2023-04-14T06:05:14.395Z,1208.00
2023-04-14T06:10:14.267Z,1076.00
2023-04-14T06:15:14.237Z,1492.00
2023-04-14T06:20:14.146Z,1696.00
2023-04-14T06:25:14.066Z,2216.00
2023-04-14T06:30:14.045Z,2492.00
2023-04-14T06:35:25.764Z,2664.00
2023-04-14T06:40:14.879Z,2916.00
2023-04-14T06:45:14.228Z,3108.00
2023-04-14T06:50:13.751Z,2792.00
2023-04-14T06:55:13.707Z,2812.00
2023-04-14T07:00:13.618Z,3184.00
2023-04-14T07:05:13.696Z,3292.00
2023-04-14T07:10:13.501Z,3600.00
2023-04-14T07:15:13.410Z,4032.00
2023-04-14T07:20:13.339Z,3496.00
2023-04-14T07:25:13.408Z,3236.00
2023-04-14T07:30:13.445Z,2936.00
2023-04-14T07:35:13.209Z,2900.00
2023-04-14T07:40:13.084Z,2952.00
2023-04-14T07:45:13.024Z,2888.00
2023-04-14T07:50:12.955Z,2740.00
2023-04-14T07:55:12.897Z,3016.00
2023-04-14T08:00:12.830Z,2948.00
2023-04-14T08:05:12.802Z,2900.00
2023-04-14T08:10:12.700Z,3028.00
2023-04-14T08:15:12.643Z,3120.00
2023-04-14T08:20:12.576Z,3420.00
2023-04-14T08:25:12.488Z,3556.00
2023-04-14T08:30:12.413Z,4132.00
2023-04-14T08:35:39.239Z,4372.00
2023-04-14T08:40:13.375Z,4804.00
2023-04-14T08:45:12.210Z,5144.00
2023-04-14T08:50:12.145Z,4860.00
2023-04-14T08:55:12.093Z,2924.00
2023-04-14T09:00:12.009Z,3332.00
2023-04-14T09:05:11.963Z,4180.00
2023-04-14T09:10:11.901Z,5224.00
2023-04-14T09:15:11.813Z,5040.00
2023-04-14T09:20:35.181Z,5192.00
2023-04-14T09:25:12.797Z,4648.00
2023-04-14T09:30:11.637Z,5148.00
2023-04-14T09:35:11.573Z,4468.00
2023-04-14T09:40:11.458Z,3992.00
2023-04-14T09:45:11.404Z,3552.00
2023-04-14T09:50:11.364Z,3664.00
2023-04-14T09:55:11.276Z,3664.00
2023-04-14T10:00:11.203Z,3128.00
2023-04-14T10:05:11.195Z,3344.00
2023-04-14T10:10:11.051Z,3760.00
2023-04-14T10:15:10.997Z,5556.00
2023-04-14T10:20:10.915Z,5688.00
2023-04-14T10:25:10.865Z,5420.00
2023-04-14T10:30:10.797Z,5024.00
2023-04-14T10:35:10.769Z,5832.00
2023-04-14T10:40:10.668Z,5824.00
2023-04-14T10:45:10.591Z,6588.00
2023-04-14T10:50:10.517Z,5176.00
2023-04-14T10:55:10.458Z,6808.00
2023-04-14T11:00:10.385Z,5728.00
2023-04-14T11:05:10.349Z,4692.00
2023-04-14T11:10:10.276Z,4392.00
2023-04-14T11:15:10.184Z,4444.00
2023-04-14T11:20:10.142Z,4492.00
2023-04-14T11:25:10.057Z,4220.00
2023-04-14T11:30:10.006Z,4948.00
2023-04-14T11:35:09.934Z,3540.00
2023-04-14T11:40:09.848Z,3932.00
2023-04-14T11:45:09.821Z,3932.00
2023-04-14T11:50:09.749Z,3896.00
2023-04-14T11:55:09.668Z,5332.00
2023-04-14T12:00:09.629Z,4844.00
2023-04-14T12:05:09.757Z,3992.00
2023-04-14T12:10:09.463Z,3940.00
2023-04-14T12:15:09.428Z,4700.00
2023-04-14T12:20:09.342Z,5544.00
2023-04-14T12:25:09.271Z,7376.00
2023-04-14T12:30:09.217Z,5860.00
2023-04-14T12:35:09.143Z,6376.00
2023-04-14T12:40:10.129Z,4924.00
2023-04-14T12:45:08.999Z,4924.00
2023-04-14T12:50:08.926Z,4520.00
2023-04-14T12:55:08.872Z,2860.00
2023-04-14T13:00:08.784Z,2852.00
2023-04-14T13:05:08.727Z,2932.00
2023-04-14T13:10:08.645Z,2796.00
2023-04-14T13:15:08.577Z,2668.00
2023-04-14T13:20:09.537Z,2844.00
2023-04-14T13:25:08.474Z,2968.00
2023-04-14T13:30:08.380Z,2304.00
2023-04-14T13:35:08.321Z,3344.00
2023-04-14T13:40:08.251Z,4088.00
2023-04-14T13:45:08.200Z,3216.00
2023-04-14T13:50:08.132Z,3192.00
2023-04-14T13:55:08.085Z,3944.00
2023-04-14T14:00:07.997Z,4500.00
2023-04-14T14:05:07.932Z,4348.00
2023-04-14T14:10:07.881Z,4480.00
2023-04-14T14:15:07.892Z,4608.00
2023-04-14T14:20:07.739Z,3284.00
2023-04-14T14:25:19.578Z,2664.00
2023-04-14T14:30:08.667Z,2644.00
2023-04-14T14:35:07.520Z,3320.00
2023-04-14T14:40:07.505Z,3608.00
2023-04-14T14:45:07.396Z,3300.00
2023-04-14T14:50:08.645Z,2936.00
2023-04-14T14:55:07.214Z,2780.00
2023-04-14T15:00:07.166Z,2656.00
2023-04-14T15:05:07.120Z,2788.00
2023-04-14T15:10:07.070Z,2216.00
2023-04-14T15:15:07.014Z,2068.00
2023-04-14T15:20:06.993Z,1876.00
2023-04-14T15:25:06.887Z,1676.00
2023-04-14T15:30:06.907Z,2196.00
2023-04-14T15:35:06.771Z,2480.00
2023-04-14T15:40:06.700Z,2340.00
2023-04-14T15:45:06.639Z,1816.00
2023-04-14T15:50:09.198Z,1800.00
2023-04-14T15:55:06.533Z,1656.00
2023-04-14T16:00:06.435Z,1400.00
2023-04-14T16:05:06.438Z,1540.00
2023-04-14T16:10:06.317Z,1732.00
2023-04-14T16:15:06.249Z,1848.00
2023-04-14T16:20:06.198Z,1728.00
2023-04-14T16:25:06.117Z,1540.00
2023-04-14T16:30:06.046Z,1216.00
2023-04-14T16:35:05.993Z,984.00
2023-04-14T16:40:05.932Z,1156.00
2023-04-14T16:45:05.863Z,1092.00
2023-04-14T16:50:05.813Z,1184.00
2023-04-14T16:55:05.746Z,1112.00
2023-04-14T17:00:05.645Z,688.00
2023-04-14T17:05:05.736Z,476.00
2023-04-14T17:10:05.516Z,292.00
2023-04-14T17:15:05.434Z,280.00
2023-04-14T17:20:05.383Z,352.00
2023-04-14T17:25:05.300Z,384.00
2023-04-14T17:30:05.233Z,276.00
2023-04-14T17:35:05.172Z,144.00
2023-04-14T17:40:05.132Z,92.00
2023-04-14T17:45:05.046Z,64.00
2023-04-14T17:50:05.010Z,40.00
2023-04-14T17:55:04.968Z,28.00
2023-04-14T18:00:04.845Z,16.00
2023-04-14T18:05:04.760Z,8.00
2023-04-14T18:10:04.702Z,4.00
2023-04-14T18:15:04.623Z,4.00
2023-04-14T18:20:04.568Z,0.00
2023-04-14T18:25:04.500Z,0.00
2023-04-14T18:30:04.494Z,0.00
2023-04-14T18:35:04.357Z,0.00
2023-04-14T18:40:04.309Z,0.00
2023-04-14T18:45:04.239Z,0.00
2023-04-14T18:50:04.173Z,0.00
2023-04-14T18:55:04.090Z,0.00
2023-04-14T19:00:04.045Z,0.00
2023-04-14T19:05:04.023Z,0.00
2023-04-14T19:10:03.906Z,0.00
2023-04-14T19:15:03.829Z,0.00
2023-04-14T19:20:03.759Z,0.00
2023-04-14T19:25:03.687Z,0.00
2023-04-14T19:30:03.626Z,0.00
2023-04-14T19:35:03.569Z,0.00
2023-04-14T19:40:03.499Z,0.00
2023-04-14T19:45:03.440Z,0.00
2023-04-14T19:50:03.364Z,0.00
2023-04-14T19:55:03.304Z,0.00
2023-04-14T20:00:03.220Z,0.00
2023-04-14T20:05:03.190Z,0.00
2023-04-14T20:10:03.121Z,0.00
2023-04-14T20:15:03.135Z,0.00
2023-04-14T20:20:02.957Z,0.00
2023-04-14T20:25:02.914Z,0.00
2023-04-14T20:30:02.821Z,0.00
2023-04-14T20:35:02.811Z,0.00
2023-04-14T20:40:02.719Z,0.00
2023-04-14T20:45:02.636Z,0.00
2023-04-14T20:50:02.565Z,0.00
2023-04-14T20:55:02.518Z,0.00
2023-04-14T21:00:02.441Z,0.00
2023-04-14T21:05:02.344Z,0.00
2023-04-14T21:10:02.337Z,0.00
2023-04-14T21:15:47.474Z,0.00
2023-04-14T21:20:03.196Z,0.00
2023-04-14T21:25:02.115Z,0.00
2023-04-14T21:30:02.035Z,0.00
2023-04-14T21:35:01.942Z,0.00
2023-04-14T21:40:01.907Z,0.00
2023-04-14T21:45:01.820Z,0.00
2023-04-14T21:50:01.776Z,0.00
2023-04-14T21:55:01.715Z,0.00
2023-04-14T22:00:01.665Z,0.00
2023-04-14T22:05:01.546Z,0.00
2023-04-14T22:10:01.525Z,0.00
2023-04-14T22:15:01.419Z,0.00
2023-04-14T22:20:01.413Z,0.00
2023-04-14T22:25:01.280Z,0.00
2023-04-14T22:30:01.209Z,0.00
2023-04-14T22:35:01.137Z,0.00
2023-04-14T22:40:01.105Z,0.00
2023-04-14T22:45:01.078Z,0.00
2023-04-14T22:50:00.943Z,0.00
2023-04-14T22:55:00.860Z,0.00
2023-04-14T23:00:00.878Z,0.00
2023-04-14T23:05:00.747Z,0.00
2023-04-14T23:10:00.677Z,0.00
2023-04-14T23:15:00.608Z,0.00
2023-04-14T23:20:00.544Z,0.00
2023-04-14T23:25:00.478Z,0.00
2023-04-14T23:30:00.420Z,0.00
2023-04-14T23:35:00.342Z,0.00
2023-04-14T23:40:00.306Z,0.00
2023-04-14T23:45:00.257Z,0.00
2023-04-14T23:50:00.220Z,0.00
2023-04-14T23:55:00.128Z,0.00
